sensor_id;sensor_type;location;lat;lon;timestamp;P1;durP1;ratioP1;P2;durP2;ratioP2
67053;SDS011;53960;51.826;5.850;2023-09-19T00:01:32;10.50;;;2.55;;
67053;SDS011;53960;51.826;5.850;2023-09-19T00:03:58;8.27;;;1.67;;
67053;SDS011;53960;51.826;5.850;2023-09-19T00:06:23;8.23;;;1.63;;
67053;SDS011;53960;51.826;5.850;2023-09-19T00:08:51;9.80;;;1.70;;
67053;SDS011;53960;51.826;5.850;2023-09-19T00:11:19;8.13;;;1.80;;
67053;SDS011;53960;51.826;5.850;2023-09-19T00:13:47;8.77;;;1.83;;
67053;SDS011;53960;51.826;5.850;2023-09-19T00:16:14;10.15;;;1.60;;
67053;SDS011;53960;51.826;5.850;2023-09-19T00:18:40;9.13;;;2.17;;
67053;SDS011;53960;51.826;5.850;2023-09-19T00:21:05;8.57;;;2.05;;
67053;SDS011;53960;51.826;5.850;2023-09-19T00:23:32;9.60;;;1.90;;
67053;SDS011;53960;51.826;5.850;2023-09-19T00:26:00;10.15;;;2.40;;
67053;SDS011;53960;51.826;5.850;2023-09-19T00:28:26;9.80;;;2.60;;
67053;SDS011;53960;51.826;5.850;2023-09-19T00:30:52;11.63;;;2.47;;
67053;SDS011;53960;51.826;5.850;2023-09-19T00:33:19;11.13;;;2.72;;
67053;SDS011;53960;51.826;5.850;2023-09-19T00:35:48;10.73;;;2.75;;
67053;SDS011;53960;51.826;5.850;2023-09-19T00:38:18;9.65;;;2.25;;
67053;SDS011;53960;51.826;5.850;2023-09-19T00:40:49;10.73;;;2.80;;
67053;SDS011;53960;51.826;5.850;2023-09-19T00:43:21;11.15;;;2.33;;
67053;SDS011;53960;51.826;5.850;2023-09-19T00:45:49;12.52;;;2.45;;
67053;SDS011;53960;51.826;5.850;2023-09-19T00:48:16;10.55;;;2.05;;
67053;SDS011;53960;51.826;5.850;2023-09-19T00:50:43;12.48;;;2.20;;
67053;SDS011;53960;51.826;5.850;2023-09-19T00:53:13;12.43;;;2.20;;
67053;SDS011;53960;51.826;5.850;2023-09-19T00:55:40;11.10;;;2.17;;
67053;SDS011;53960;51.826;5.850;2023-09-19T00:58:07;9.40;;;2.00;;
67053;SDS011;53960;51.826;5.850;2023-09-19T01:00:33;13.23;;;2.95;;
67053;SDS011;53960;51.826;5.850;2023-09-19T01:03:02;16.67;;;2.20;;
67053;SDS011;53960;51.826;5.850;2023-09-19T01:05:29;13.68;;;2.35;;
67053;SDS011;53960;51.826;5.850;2023-09-19T01:07:55;13.93;;;2.30;;
67053;SDS011;53960;51.826;5.850;2023-09-19T01:10:20;10.23;;;2.00;;
67053;SDS011;53960;51.826;5.850;2023-09-19T01:12:55;12.70;;;1.88;;
67053;SDS011;53960;51.826;5.850;2023-09-19T01:26:30;13.80;;;2.23;;
67053;SDS011;53960;51.826;5.850;2023-09-19T01:31:59;10.07;;;1.77;;
67053;SDS011;53960;51.826;5.850;2023-09-19T01:34:42;10.88;;;2.15;;
67053;SDS011;53960;51.826;5.850;2023-09-19T01:37:10;11.07;;;1.73;;
67053;SDS011;53960;51.826;5.850;2023-09-19T01:39:35;12.00;;;2.13;;
67053;SDS011;53960;51.826;5.850;2023-09-19T01:42:09;8.37;;;1.43;;
67053;SDS011;53960;51.826;5.850;2023-09-19T01:45:17;13.18;;;1.95;;
67053;SDS011;53960;51.826;5.850;2023-09-19T01:47:50;10.02;;;1.60;;
67053;SDS011;53960;51.826;5.850;2023-09-19T01:50:30;11.10;;;1.90;;
67053;SDS011;53960;51.826;5.850;2023-09-19T01:53:10;12.77;;;1.98;;
67053;SDS011;53960;51.826;5.850;2023-09-19T01:55:46;10.77;;;1.43;;
67053;SDS011;53960;51.826;5.850;2023-09-19T02:00:49;12.55;;;2.10;;
67053;SDS011;53960;51.826;5.850;2023-09-19T02:03:19;11.23;;;1.90;;
67053;SDS011;53960;51.826;5.850;2023-09-19T02:05:50;10.77;;;2.15;;
67053;SDS011;53960;51.826;5.850;2023-09-19T02:08:18;13.10;;;2.30;;
67053;SDS011;53960;51.826;5.850;2023-09-19T02:10:45;9.70;;;1.75;;
67053;SDS011;53960;51.826;5.850;2023-09-19T02:13:17;8.38;;;1.67;;
67053;SDS011;53960;51.826;5.850;2023-09-19T02:15:44;12.50;;;2.45;;
67053;SDS011;53960;51.826;5.850;2023-09-19T02:18:09;12.53;;;1.97;;
67053;SDS011;53960;51.826;5.850;2023-09-19T02:20:36;11.45;;;1.80;;
67053;SDS011;53960;51.826;5.850;2023-09-19T02:23:02;11.05;;;2.30;;
67053;SDS011;53960;51.826;5.850;2023-09-19T02:25:28;9.07;;;1.73;;
67053;SDS011;53960;51.826;5.850;2023-09-19T02:27:53;8.53;;;1.60;;
67053;SDS011;53960;51.826;5.850;2023-09-19T02:30:19;10.50;;;2.55;;
67053;SDS011;53960;51.826;5.850;2023-09-19T02:32:46;12.05;;;2.00;;
67053;SDS011;53960;51.826;5.850;2023-09-19T02:35:11;11.93;;;1.93;;
67053;SDS011;53960;51.826;5.850;2023-09-19T02:37:39;15.10;;;1.90;;
67053;SDS011;53960;51.826;5.850;2023-09-19T02:40:05;13.10;;;3.03;;
67053;SDS011;53960;51.826;5.850;2023-09-19T02:42:43;12.50;;;2.20;;
67053;SDS011;53960;51.826;5.850;2023-09-19T02:45:13;10.25;;;1.70;;
67053;SDS011;53960;51.826;5.850;2023-09-19T02:47:42;10.65;;;2.00;;
67053;SDS011;53960;51.826;5.850;2023-09-19T02:50:08;12.10;;;2.03;;
67053;SDS011;53960;51.826;5.850;2023-09-19T02:52:36;9.52;;;1.60;;
67053;SDS011;53960;51.826;5.850;2023-09-19T02:55:02;11.15;;;2.05;;
67053;SDS011;53960;51.826;5.850;2023-09-19T02:57:29;12.85;;;2.20;;
67053;SDS011;53960;51.826;5.850;2023-09-19T02:59:56;13.50;;;1.90;;
67053;SDS011;53960;51.826;5.850;2023-09-19T03:02:21;11.93;;;1.80;;
67053;SDS011;53960;51.826;5.850;2023-09-19T03:04:49;13.53;;;1.70;;
67053;SDS011;53960;51.826;5.850;2023-09-19T03:07:16;14.93;;;2.47;;
67053;SDS011;53960;51.826;5.850;2023-09-19T03:09:42;12.32;;;2.15;;
67053;SDS011;53960;51.826;5.850;2023-09-19T03:12:08;9.13;;;1.83;;
67053;SDS011;53960;51.826;5.850;2023-09-19T03:14:33;9.70;;;1.60;;
67053;SDS011;53960;51.826;5.850;2023-09-19T03:17:00;11.18;;;1.80;;
67053;SDS011;53960;51.826;5.850;2023-09-19T03:19:26;16.10;;;1.90;;
67053;SDS011;53960;51.826;5.850;2023-09-19T03:21:51;11.87;;;2.03;;
67053;SDS011;53960;51.826;5.850;2023-09-19T03:24:18;10.60;;;1.73;;
67053;SDS011;53960;51.826;5.850;2023-09-19T03:26:43;11.27;;;1.70;;
67053;SDS011;53960;51.826;5.850;2023-09-19T03:29:10;9.60;;;2.03;;
67053;SDS011;53960;51.826;5.850;2023-09-19T03:31:35;8.77;;;1.92;;
67053;SDS011;53960;51.826;5.850;2023-09-19T03:34:04;10.25;;;1.80;;
67053;SDS011;53960;51.826;5.850;2023-09-19T03:36:29;9.47;;;1.57;;
67053;SDS011;53960;51.826;5.850;2023-09-19T03:38:55;11.90;;;1.90;;
67053;SDS011;53960;51.826;5.850;2023-09-19T03:41:20;10.77;;;1.63;;
67053;SDS011;53960;51.826;5.850;2023-09-19T03:43:46;11.37;;;1.93;;
67053;SDS011;53960;51.826;5.850;2023-09-19T03:46:11;10.17;;;1.47;;
67053;SDS011;53960;51.826;5.850;2023-09-19T03:48:40;11.88;;;1.90;;
67053;SDS011;53960;51.826;5.850;2023-09-19T03:51:06;10.23;;;1.63;;
67053;SDS011;53960;51.826;5.850;2023-09-19T03:53:31;9.00;;;1.73;;
67053;SDS011;53960;51.826;5.850;2023-09-19T03:55:57;11.03;;;1.50;;
67053;SDS011;53960;51.826;5.850;2023-09-19T03:58:22;9.87;;;1.80;;
67053;SDS011;53960;51.826;5.850;2023-09-19T04:00:48;7.83;;;1.40;;
67053;SDS011;53960;51.826;5.850;2023-09-19T04:03:14;12.35;;;1.70;;
67053;SDS011;53960;51.826;5.850;2023-09-19T04:05:45;9.88;;;1.65;;
67053;SDS011;53960;51.826;5.850;2023-09-19T04:08:14;11.20;;;1.77;;
67053;SDS011;53960;51.826;5.850;2023-09-19T04:10:42;10.60;;;1.50;;
67053;SDS011;53960;51.826;5.850;2023-09-19T04:13:11;10.63;;;2.20;;
67053;SDS011;53960;51.826;5.850;2023-09-19T04:15:36;8.60;;;1.53;;
67053;SDS011;53960;51.826;5.850;2023-09-19T04:18:02;11.82;;;1.95;;
67053;SDS011;53960;51.826;5.850;2023-09-19T04:20:29;8.53;;;1.80;;
67053;SDS011;53960;51.826;5.850;2023-09-19T04:22:54;9.37;;;1.40;;
67053;SDS011;53960;51.826;5.850;2023-09-19T04:25:20;11.52;;;1.73;;
67053;SDS011;53960;51.826;5.850;2023-09-19T04:27:45;16.00;;;1.70;;
67053;SDS011;53960;51.826;5.850;2023-09-19T04:30:14;10.07;;;1.95;;
67053;SDS011;53960;51.826;5.850;2023-09-19T04:32:40;10.97;;;1.30;;
67053;SDS011;53960;51.826;5.850;2023-09-19T04:35:06;12.38;;;1.77;;
67053;SDS011;53960;51.826;5.850;2023-09-19T04:37:34;10.52;;;1.50;;
67053;SDS011;53960;51.826;5.850;2023-09-19T04:40:01;9.13;;;1.30;;
67053;SDS011;53960;51.826;5.850;2023-09-19T04:42:29;11.82;;;1.63;;
67053;SDS011;53960;51.826;5.850;2023-09-19T04:44:55;10.20;;;1.63;;
67053;SDS011;53960;51.826;5.850;2023-09-19T04:47:20;10.57;;;1.47;;
67053;SDS011;53960;51.826;5.850;2023-09-19T04:49:47;9.40;;;1.65;;
67053;SDS011;53960;51.826;5.850;2023-09-19T04:52:12;10.10;;;1.80;;
67053;SDS011;53960;51.826;5.850;2023-09-19T04:54:40;13.85;;;1.55;;
67053;SDS011;53960;51.826;5.850;2023-09-19T04:57:06;10.60;;;1.43;;
67053;SDS011;53960;51.826;5.850;2023-09-19T04:59:31;12.10;;;1.95;;
67053;SDS011;53960;51.826;5.850;2023-09-19T05:01:57;15.27;;;2.20;;
67053;SDS011;53960;51.826;5.850;2023-09-19T05:04:23;10.63;;;2.03;;
67053;SDS011;53960;51.826;5.850;2023-09-19T05:06:48;8.83;;;1.30;;
67053;SDS011;53960;51.826;5.850;2023-09-19T05:09:13;8.37;;;1.43;;
67053;SDS011;53960;51.826;5.850;2023-09-19T05:11:40;10.75;;;1.67;;
67053;SDS011;53960;51.826;5.850;2023-09-19T05:14:06;9.40;;;1.37;;
67053;SDS011;53960;51.826;5.850;2023-09-19T05:16:31;8.33;;;1.40;;
67053;SDS011;53960;51.826;5.850;2023-09-19T05:18:57;10.53;;;1.70;;
67053;SDS011;53960;51.826;5.850;2023-09-19T05:21:25;9.00;;;1.70;;
67053;SDS011;53960;51.826;5.850;2023-09-19T05:23:55;8.30;;;1.65;;
67053;SDS011;53960;51.826;5.850;2023-09-19T05:26:21;11.48;;;1.63;;
67053;SDS011;53960;51.826;5.850;2023-09-19T05:28:46;13.17;;;1.83;;
67053;SDS011;53960;51.826;5.850;2023-09-19T05:31:13;10.75;;;1.65;;
67053;SDS011;53960;51.826;5.850;2023-09-19T05:33:39;11.73;;;1.50;;
67053;SDS011;53960;51.826;5.850;2023-09-19T05:36:04;13.93;;;1.80;;
67053;SDS011;53960;51.826;5.850;2023-09-19T05:38:30;12.67;;;1.97;;
67053;SDS011;53960;51.826;5.850;2023-09-19T05:40:55;9.77;;;1.60;;
67053;SDS011;53960;51.826;5.850;2023-09-19T05:43:21;11.80;;;1.77;;
67053;SDS011;53960;51.826;5.850;2023-09-19T05:45:47;11.60;;;1.57;;
67053;SDS011;53960;51.826;5.850;2023-09-19T05:48:13;14.32;;;1.52;;
67053;SDS011;53960;51.826;5.850;2023-09-19T05:50:41;9.73;;;1.90;;
67053;SDS011;53960;51.826;5.850;2023-09-19T05:53:07;9.60;;;1.65;;
67053;SDS011;53960;51.826;5.850;2023-09-19T05:55:33;9.40;;;1.47;;
67053;SDS011;53960;51.826;5.850;2023-09-19T05:57:58;14.38;;;1.85;;
67053;SDS011;53960;51.826;5.850;2023-09-19T06:00:24;9.40;;;1.43;;
67053;SDS011;53960;51.826;5.850;2023-09-19T06:05:20;11.88;;;1.60;;
67053;SDS011;53960;51.826;5.850;2023-09-19T06:07:48;11.97;;;1.70;;
67053;SDS011;53960;51.826;5.850;2023-09-19T06:10:13;13.60;;;1.60;;
67053;SDS011;53960;51.826;5.850;2023-09-19T06:12:40;14.53;;;2.43;;
67053;SDS011;53960;51.826;5.850;2023-09-19T06:15:09;10.35;;;1.50;;
67053;SDS011;53960;51.826;5.850;2023-09-19T06:17:40;10.15;;;1.52;;
67053;SDS011;53960;51.826;5.850;2023-09-19T06:20:07;9.38;;;1.60;;
67053;SDS011;53960;51.826;5.850;2023-09-19T06:22:40;11.00;;;1.67;;
67053;SDS011;53960;51.826;5.850;2023-09-19T06:25:09;11.97;;;1.80;;
67053;SDS011;53960;51.826;5.850;2023-09-19T06:27:44;10.43;;;1.73;;
67053;SDS011;53960;51.826;5.850;2023-09-19T06:30:13;13.27;;;1.77;;
67053;SDS011;53960;51.826;5.850;2023-09-19T06:32:39;9.38;;;1.40;;
67053;SDS011;53960;51.826;5.850;2023-09-19T06:35:09;12.45;;;2.17;;
67053;SDS011;53960;51.826;5.850;2023-09-19T06:37:36;8.97;;;1.47;;
67053;SDS011;53960;51.826;5.850;2023-09-19T06:40:06;10.25;;;1.60;;
67053;SDS011;53960;51.826;5.850;2023-09-19T06:42:42;12.35;;;1.60;;
67053;SDS011;53960;51.826;5.850;2023-09-19T06:45:09;11.35;;;1.40;;
67053;SDS011;53960;51.826;5.850;2023-09-19T06:47:39;8.95;;;1.40;;
67053;SDS011;53960;51.826;5.850;2023-09-19T06:50:04;10.90;;;1.80;;
67053;SDS011;53960;51.826;5.850;2023-09-19T06:52:31;7.97;;;1.35;;
67053;SDS011;53960;51.826;5.850;2023-09-19T06:54:58;9.40;;;1.60;;
67053;SDS011;53960;51.826;5.850;2023-09-19T06:57:23;11.10;;;1.50;;
67053;SDS011;53960;51.826;5.850;2023-09-19T06:59:49;9.40;;;1.38;;
67053;SDS011;53960;51.826;5.850;2023-09-19T07:02:15;10.20;;;1.42;;
67053;SDS011;53960;51.826;5.850;2023-09-19T07:04:40;9.77;;;1.77;;
67053;SDS011;53960;51.826;5.850;2023-09-19T07:07:06;14.97;;;2.20;;
67053;SDS011;53960;51.826;5.850;2023-09-19T07:09:33;12.18;;;2.25;;
67053;SDS011;53960;51.826;5.850;2023-09-19T07:11:59;12.43;;;2.93;;
67053;SDS011;53960;51.826;5.850;2023-09-19T07:14:25;15.13;;;2.38;;
67053;SDS011;53960;51.826;5.850;2023-09-19T07:16:51;12.88;;;2.00;;
67053;SDS011;53960;51.826;5.850;2023-09-19T07:19:17;18.33;;;2.37;;
67053;SDS011;53960;51.826;5.850;2023-09-19T07:21:42;9.23;;;1.43;;
67053;SDS011;53960;51.826;5.850;2023-09-19T07:24:07;12.75;;;1.92;;
67053;SDS011;53960;51.826;5.850;2023-09-19T07:26:33;10.50;;;1.97;;
67053;SDS011;53960;51.826;5.850;2023-09-19T07:28:59;12.73;;;1.75;;
67053;SDS011;53960;51.826;5.850;2023-09-19T07:31:27;10.88;;;1.67;;
67053;SDS011;53960;51.826;5.850;2023-09-19T07:33:53;12.70;;;1.73;;
67053;SDS011;53960;51.826;5.850;2023-09-19T07:36:19;10.30;;;1.77;;
67053;SDS011;53960;51.826;5.850;2023-09-19T07:38:45;9.02;;;2.13;;
67053;SDS011;53960;51.826;5.850;2023-09-19T07:41:10;9.73;;;1.80;;
67053;SDS011;53960;51.826;5.850;2023-09-19T07:43:35;14.07;;;1.70;;
67053;SDS011;53960;51.826;5.850;2023-09-19T07:46:03;12.93;;;2.57;;
67053;SDS011;53960;51.826;5.850;2023-09-19T07:48:35;13.20;;;2.05;;
67053;SDS011;53960;51.826;5.850;2023-09-19T07:51:04;14.50;;;2.45;;
67053;SDS011;53960;51.826;5.850;2023-09-19T07:53:31;11.95;;;1.70;;
67053;SDS011;53960;51.826;5.850;2023-09-19T07:56:02;19.23;;;1.95;;
67053;SDS011;53960;51.826;5.850;2023-09-19T07:58:28;15.03;;;2.30;;
67053;SDS011;53960;51.826;5.850;2023-09-19T08:00:54;13.83;;;1.83;;
67053;SDS011;53960;51.826;5.850;2023-09-19T08:03:19;10.07;;;1.80;;
67053;SDS011;53960;51.826;5.850;2023-09-19T08:05:44;11.53;;;1.80;;
67053;SDS011;53960;51.826;5.850;2023-09-19T08:08:10;11.40;;;1.87;;
67053;SDS011;53960;51.826;5.850;2023-09-19T08:10:39;10.93;;;1.80;;
67053;SDS011;53960;51.826;5.850;2023-09-19T08:13:07;11.77;;;1.70;;
67053;SDS011;53960;51.826;5.850;2023-09-19T08:15:36;11.52;;;1.60;;
67053;SDS011;53960;51.826;5.850;2023-09-19T08:18:09;13.25;;;2.20;;
67053;SDS011;53960;51.826;5.850;2023-09-19T08:20:37;10.68;;;1.80;;
67053;SDS011;53960;51.826;5.850;2023-09-19T08:23:03;13.48;;;2.15;;
67053;SDS011;53960;51.826;5.850;2023-09-19T08:25:28;14.97;;;2.03;;
67053;SDS011;53960;51.826;5.850;2023-09-19T08:27:54;11.68;;;1.63;;
67053;SDS011;53960;51.826;5.850;2023-09-19T08:30:23;13.95;;;2.22;;
67053;SDS011;53960;51.826;5.850;2023-09-19T08:32:49;8.00;;;1.60;;
67053;SDS011;53960;51.826;5.850;2023-09-19T08:35:15;11.07;;;1.43;;
67053;SDS011;53960;51.826;5.850;2023-09-19T08:37:41;12.77;;;1.77;;
67053;SDS011;53960;51.826;5.850;2023-09-19T08:40:08;12.98;;;2.55;;
67053;SDS011;53960;51.826;5.850;2023-09-19T08:42:47;12.27;;;1.98;;
67053;SDS011;53960;51.826;5.850;2023-09-19T08:45:15;16.53;;;1.93;;
67053;SDS011;53960;51.826;5.850;2023-09-19T08:48:26;12.25;;;1.88;;
67053;SDS011;53960;51.826;5.850;2023-09-19T08:50:49;11.75;;;2.00;;
67053;SDS011;53960;51.826;5.850;2023-09-19T08:53:22;14.20;;;2.35;;
67053;SDS011;53960;51.826;5.850;2023-09-19T08:55:56;11.43;;;1.80;;
67053;SDS011;53960;51.826;5.850;2023-09-19T08:58:23;12.48;;;1.85;;
67053;SDS011;53960;51.826;5.850;2023-09-19T09:00:54;16.25;;;2.13;;
67053;SDS011;53960;51.826;5.850;2023-09-19T09:03:21;11.25;;;2.00;;
67053;SDS011;53960;51.826;5.850;2023-09-19T09:05:47;11.35;;;1.83;;
67053;SDS011;53960;51.826;5.850;2023-09-19T09:08:15;16.93;;;1.87;;
67053;SDS011;53960;51.826;5.850;2023-09-19T09:10:43;11.27;;;1.70;;
67053;SDS011;53960;51.826;5.850;2023-09-19T09:13:09;11.93;;;1.83;;
67053;SDS011;53960;51.826;5.850;2023-09-19T09:15:35;12.77;;;1.90;;
67053;SDS011;53960;51.826;5.850;2023-09-19T09:18:01;10.90;;;1.83;;
67053;SDS011;53960;51.826;5.850;2023-09-19T09:20:28;11.30;;;1.75;;
67053;SDS011;53960;51.826;5.850;2023-09-19T09:22:53;12.87;;;2.00;;
67053;SDS011;53960;51.826;5.850;2023-09-19T09:25:20;13.50;;;2.45;;
67053;SDS011;53960;51.826;5.850;2023-09-19T09:27:59;12.02;;;1.83;;
67053;SDS011;53960;51.826;5.850;2023-09-19T09:30:34;14.13;;;2.20;;
67053;SDS011;53960;51.826;5.850;2023-09-19T09:33:11;11.63;;;1.80;;
67053;SDS011;53960;51.826;5.850;2023-09-19T09:35:47;11.88;;;1.50;;
67053;SDS011;53960;51.826;5.850;2023-09-19T09:38:25;14.63;;;2.17;;
67053;SDS011;53960;51.826;5.850;2023-09-19T09:40:57;12.68;;;1.90;;
67053;SDS011;53960;51.826;5.850;2023-09-19T09:43:30;13.88;;;2.45;;
67053;SDS011;53960;51.826;5.850;2023-09-19T09:46:10;11.13;;;1.87;;
67053;SDS011;53960;51.826;5.850;2023-09-19T09:48:48;10.65;;;2.10;;
67053;SDS011;53960;51.826;5.850;2023-09-19T09:54:16;11.45;;;1.63;;
67053;SDS011;53960;51.826;5.850;2023-09-19T09:56:57;11.23;;;2.28;;
67053;SDS011;53960;51.826;5.850;2023-09-19T09:59:51;11.10;;;2.00;;
67053;SDS011;53960;51.826;5.850;2023-09-19T10:02:25;13.52;;;1.77;;
67053;SDS011;53960;51.826;5.850;2023-09-19T10:04:57;12.75;;;2.00;;
67053;SDS011;53960;51.826;5.850;2023-09-19T10:07:33;12.80;;;1.90;;
67053;SDS011;53960;51.826;5.850;2023-09-19T10:10:02;12.38;;;2.08;;
67053;SDS011;53960;51.826;5.850;2023-09-19T10:12:38;11.57;;;2.27;;
67053;SDS011;53960;51.826;5.850;2023-09-19T10:15:08;10.80;;;1.98;;
67053;SDS011;53960;51.826;5.850;2023-09-19T10:17:36;14.77;;;2.00;;
67053;SDS011;53960;51.826;5.850;2023-09-19T10:20:02;11.05;;;1.95;;
67053;SDS011;53960;51.826;5.850;2023-09-19T10:22:42;10.80;;;2.25;;
67053;SDS011;53960;51.826;5.850;2023-09-19T10:25:08;15.77;;;2.20;;
67053;SDS011;53960;51.826;5.850;2023-09-19T10:27:34;8.93;;;1.58;;
67053;SDS011;53960;51.826;5.850;2023-09-19T10:30:04;11.52;;;1.65;;
67053;SDS011;53960;51.826;5.850;2023-09-19T10:32:32;10.10;;;2.47;;
67053;SDS011;53960;51.826;5.850;2023-09-19T10:35:00;10.70;;;1.83;;
67053;SDS011;53960;51.826;5.850;2023-09-19T10:37:27;12.73;;;1.80;;
67053;SDS011;53960;51.826;5.850;2023-09-19T10:39:55;12.57;;;2.00;;
67053;SDS011;53960;51.826;5.850;2023-09-19T10:42:21;9.55;;;1.38;;
67053;SDS011;53960;51.826;5.850;2023-09-19T10:44:50;9.27;;;1.80;;
67053;SDS011;53960;51.826;5.850;2023-09-19T10:47:20;13.87;;;2.33;;
67053;SDS011;53960;51.826;5.850;2023-09-19T10:49:49;10.95;;;1.40;;
67053;SDS011;53960;51.826;5.850;2023-09-19T10:52:15;17.33;;;2.08;;
67053;SDS011;53960;51.826;5.850;2023-09-19T10:54:46;10.30;;;1.60;;
67053;SDS011;53960;51.826;5.850;2023-09-19T10:57:23;9.87;;;2.00;;
67053;SDS011;53960;51.826;5.850;2023-09-19T11:00:02;13.23;;;1.70;;
67053;SDS011;53960;51.826;5.850;2023-09-19T11:05:35;11.93;;;2.00;;
67053;SDS011;53960;51.826;5.850;2023-09-19T11:08:05;12.55;;;1.70;;
67053;SDS011;53960;51.826;5.850;2023-09-19T11:10:48;9.40;;;1.97;;
67053;SDS011;53960;51.826;5.850;2023-09-19T11:13:25;11.63;;;1.70;;
67053;SDS011;53960;51.826;5.850;2023-09-19T11:26:44;11.38;;;1.83;;
67053;SDS011;53960;51.826;5.850;2023-09-19T11:29:26;8.93;;;1.40;;
67053;SDS011;53960;51.826;5.850;2023-09-19T11:31:53;8.80;;;1.30;;
67053;SDS011;53960;51.826;5.850;2023-09-19T11:37:01;7.53;;;1.40;;
67053;SDS011;53960;51.826;5.850;2023-09-19T11:39:29;10.63;;;1.55;;
67053;SDS011;53960;51.826;5.850;2023-09-19T11:41:55;8.25;;;1.40;;
67053;SDS011;53960;51.826;5.850;2023-09-19T11:44:31;8.93;;;1.27;;
67053;SDS011;53960;51.826;5.850;2023-09-19T11:47:03;9.25;;;1.45;;
67053;SDS011;53960;51.826;5.850;2023-09-19T11:49:30;7.50;;;0.97;;
67053;SDS011;53960;51.826;5.850;2023-09-19T11:51:58;8.13;;;1.63;;
67053;SDS011;53960;51.826;5.850;2023-09-19T11:54:30;7.70;;;1.25;;
67053;SDS011;53960;51.826;5.850;2023-09-19T11:56:57;7.75;;;1.38;;
67053;SDS011;53960;51.826;5.850;2023-09-19T11:59:25;10.20;;;1.60;;
67053;SDS011;53960;51.826;5.850;2023-09-19T12:01:55;7.47;;;1.30;;
67053;SDS011;53960;51.826;5.850;2023-09-19T12:04:37;9.15;;;1.33;;
67053;SDS011;53960;51.826;5.850;2023-09-19T12:07:11;8.27;;;1.50;;
67053;SDS011;53960;51.826;5.850;2023-09-19T12:09:51;9.30;;;1.80;;
67053;SDS011;53960;51.826;5.850;2023-09-19T12:12:29;9.35;;;1.40;;
67053;SDS011;53960;51.826;5.850;2023-09-19T12:14:56;10.27;;;1.20;;
67053;SDS011;53960;51.826;5.850;2023-09-19T12:17:24;5.90;;;1.02;;
67053;SDS011;53960;51.826;5.850;2023-09-19T12:20:02;8.57;;;1.42;;
67053;SDS011;53960;51.826;5.850;2023-09-19T12:22:42;10.65;;;1.25;;
67053;SDS011;53960;51.826;5.850;2023-09-19T12:25:11;8.60;;;1.35;;
67053;SDS011;53960;51.826;5.850;2023-09-19T12:27:44;7.33;;;1.10;;
67053;SDS011;53960;51.826;5.850;2023-09-19T12:30:14;6.13;;;1.30;;
67053;SDS011;53960;51.826;5.850;2023-09-19T12:32:42;7.78;;;1.02;;
67053;SDS011;53960;51.826;5.850;2023-09-19T12:35:09;8.60;;;1.17;;
67053;SDS011;53960;51.826;5.850;2023-09-19T12:37:42;7.03;;;0.90;;
67053;SDS011;53960;51.826;5.850;2023-09-19T12:40:18;7.43;;;1.00;;
67053;SDS011;53960;51.826;5.850;2023-09-19T12:42:52;6.93;;;0.95;;
67053;SDS011;53960;51.826;5.850;2023-09-19T12:45:23;7.82;;;1.25;;
67053;SDS011;53960;51.826;5.850;2023-09-19T12:50:59;5.85;;;0.90;;
67053;SDS011;53960;51.826;5.850;2023-09-19T12:53:36;6.57;;;1.35;;
67053;SDS011;53960;51.826;5.850;2023-09-19T12:56:07;6.03;;;1.23;;
67053;SDS011;53960;51.826;5.850;2023-09-19T12:58:47;7.57;;;1.35;;
67053;SDS011;53960;51.826;5.850;2023-09-19T13:01:19;8.30;;;1.17;;
67053;SDS011;53960;51.826;5.850;2023-09-19T13:03:45;5.63;;;0.90;;
67053;SDS011;53960;51.826;5.850;2023-09-19T13:06:11;7.63;;;1.13;;
67053;SDS011;53960;51.826;5.850;2023-09-19T13:08:37;8.70;;;1.13;;
67053;SDS011;53960;51.826;5.850;2023-09-19T13:11:10;6.13;;;1.03;;
67053;SDS011;53960;51.826;5.850;2023-09-19T13:13:38;5.63;;;1.00;;
67053;SDS011;53960;51.826;5.850;2023-09-19T13:16:05;7.72;;;1.00;;
67053;SDS011;53960;51.826;5.850;2023-09-19T13:18:43;8.00;;;1.00;;
67053;SDS011;53960;51.826;5.850;2023-09-19T13:21:10;9.23;;;0.95;;
67053;SDS011;53960;51.826;5.850;2023-09-19T13:23:52;5.37;;;0.90;;
67053;SDS011;53960;51.826;5.850;2023-09-19T13:26:24;7.38;;;1.25;;
67053;SDS011;53960;51.826;5.850;2023-09-19T13:28:53;6.30;;;1.10;;
67053;SDS011;53960;51.826;5.850;2023-09-19T13:31:19;6.80;;;0.88;;
67053;SDS011;53960;51.826;5.850;2023-09-19T13:33:45;6.83;;;1.10;;
67053;SDS011;53960;51.826;5.850;2023-09-19T13:36:12;6.35;;;1.02;;
67053;SDS011;53960;51.826;5.850;2023-09-19T13:38:41;5.57;;;0.90;;
67053;SDS011;53960;51.826;5.850;2023-09-19T13:41:09;6.47;;;1.00;;
67053;SDS011;53960;51.826;5.850;2023-09-19T13:43:36;7.70;;;1.07;;
67053;SDS011;53960;51.826;5.850;2023-09-19T13:46:05;6.68;;;0.80;;
67053;SDS011;53960;51.826;5.850;2023-09-19T13:48:40;7.75;;;0.90;;
67053;SDS011;53960;51.826;5.850;2023-09-19T13:51:05;6.00;;;1.00;;
67053;SDS011;53960;51.826;5.850;2023-09-19T13:53:30;6.27;;;0.90;;
67053;SDS011;53960;51.826;5.850;2023-09-19T13:55:56;5.27;;;1.17;;
67053;SDS011;53960;51.826;5.850;2023-09-19T13:58:21;4.47;;;0.70;;
67053;SDS011;53960;51.826;5.850;2023-09-19T14:00:47;6.03;;;0.90;;
67053;SDS011;53960;51.826;5.850;2023-09-19T14:03:13;7.63;;;1.08;;
67053;SDS011;53960;51.826;5.850;2023-09-19T14:05:39;6.77;;;1.00;;
67053;SDS011;53960;51.826;5.850;2023-09-19T14:08:04;6.20;;;0.80;;
67053;SDS011;53960;51.826;5.850;2023-09-19T14:10:30;9.13;;;1.37;;
67053;SDS011;53960;51.826;5.850;2023-09-19T14:12:56;5.97;;;1.30;;
67053;SDS011;53960;51.826;5.850;2023-09-19T14:15:26;6.53;;;0.95;;
67053;SDS011;53960;51.826;5.850;2023-09-19T14:17:56;4.23;;;0.60;;
67053;SDS011;53960;51.826;5.850;2023-09-19T14:20:22;5.75;;;1.35;;
67053;SDS011;53960;51.826;5.850;2023-09-19T14:22:48;6.38;;;1.00;;
67053;SDS011;53960;51.826;5.850;2023-09-19T14:25:13;7.03;;;1.27;;
67053;SDS011;53960;51.826;5.850;2023-09-19T14:27:39;5.00;;;0.90;;
67053;SDS011;53960;51.826;5.850;2023-09-19T14:30:04;6.18;;;0.82;;
67053;SDS011;53960;51.826;5.850;2023-09-19T14:32:31;8.27;;;1.23;;
67053;SDS011;53960;51.826;5.850;2023-09-19T14:34:56;5.45;;;0.80;;
67053;SDS011;53960;51.826;5.850;2023-09-19T14:37:21;6.47;;;0.90;;
67053;SDS011;53960;51.826;5.850;2023-09-19T14:39:47;7.30;;;0.90;;
67053;SDS011;53960;51.826;5.850;2023-09-19T14:42:13;7.47;;;0.90;;
67053;SDS011;53960;51.826;5.850;2023-09-19T14:44:42;5.50;;;0.80;;
67053;SDS011;53960;51.826;5.850;2023-09-19T14:47:08;6.68;;;1.00;;
67053;SDS011;53960;51.826;5.850;2023-09-19T14:49:34;7.27;;;1.37;;
67053;SDS011;53960;51.826;5.850;2023-09-19T14:52:07;5.78;;;0.80;;
67053;SDS011;53960;51.826;5.850;2023-09-19T14:54:33;5.90;;;0.98;;
67053;SDS011;53960;51.826;5.850;2023-09-19T14:56:59;6.53;;;0.90;;
67053;SDS011;53960;51.826;5.850;2023-09-19T14:59:33;6.85;;;1.17;;
67053;SDS011;53960;51.826;5.850;2023-09-19T15:02:02;7.22;;;0.93;;
67053;SDS011;53960;51.826;5.850;2023-09-19T15:04:29;5.55;;;0.93;;
67053;SDS011;53960;51.826;5.850;2023-09-19T15:06:54;6.43;;;1.10;;
67053;SDS011;53960;51.826;5.850;2023-09-19T15:09:21;5.88;;;0.98;;
67053;SDS011;53960;51.826;5.850;2023-09-19T15:11:54;6.60;;;1.02;;
67053;SDS011;53960;51.826;5.850;2023-09-19T15:14:20;6.93;;;0.90;;
67053;SDS011;53960;51.826;5.850;2023-09-19T15:16:50;6.43;;;1.00;;
67053;SDS011;53960;51.826;5.850;2023-09-19T15:19:15;7.30;;;1.08;;
67053;SDS011;53960;51.826;5.850;2023-09-19T15:21:42;7.27;;;1.00;;
67053;SDS011;53960;51.826;5.850;2023-09-19T15:24:08;7.65;;;1.05;;
67053;SDS011;53960;51.826;5.850;2023-09-19T15:26:35;6.30;;;1.05;;
67053;SDS011;53960;51.826;5.850;2023-09-19T15:29:07;6.40;;;1.20;;
67053;SDS011;53960;51.826;5.850;2023-09-19T15:31:34;8.00;;;1.00;;